sensor_id;sensor_type;location;lat;lon;timestamp;temperature;humidity
9640;DHT22;51745;50.872;4.732;2022-09-25T00:01:00;14.00;99.90
9640;DHT22;51745;50.872;4.732;2022-09-25T00:04:16;11.80;99.90
9640;DHT22;51745;50.872;4.732;2022-09-25T00:07:08;11.60;99.90
9640;DHT22;51745;50.872;4.732;2022-09-25T00:09:58;11.50;99.90
9640;DHT22;51745;50.872;4.732;2022-09-25T00:12:47;11.50;99.90
9640;DHT22;51745;50.872;4.732;2022-09-25T00:15:36;11.50;99.90
9640;DHT22;51745;50.872;4.732;2022-09-25T00:18:25;11.50;99.90
9640;DHT22;51745;50.872;4.732;2022-09-25T00:21:31;11.00;99.90
9640;DHT22;51745;50.872;4.732;2022-09-25T00:24:25;11.40;99.90
9640;DHT22;51745;50.872;4.732;2022-09-25T00:27:19;11.60;99.90
9640;DHT22;51745;50.872;4.732;2022-09-25T00:30:12;11.40;99.90
9640;DHT22;51745;50.872;4.732;2022-09-25T00:33:02;11.40;99.90
9640;DHT22;51745;50.872;4.732;2022-09-25T00:35:51;11.20;99.90
9640;DHT22;51745;50.872;4.732;2022-09-25T00:38:45;11.30;99.90
9640;DHT22;51745;50.872;4.732;2022-09-25T00:41:37;11.50;99.90
9640;DHT22;51745;50.872;4.732;2022-09-25T00:44:48;11.30;99.90
9640;DHT22;51745;50.872;4.732;2022-09-25T00:47:46;11.30;99.90
9640;DHT22;51745;50.872;4.732;2022-09-25T00:50:41;11.60;99.90
9640;DHT22;51745;50.872;4.732;2022-09-25T00:53:35;9.60;99.90
9640;DHT22;51745;50.872;4.732;2022-09-25T00:56:32;11.30;99.90
9640;DHT22;51745;50.872;4.732;2022-09-25T00:59:25;12.30;99.90
9640;DHT22;51745;50.872;4.732;2022-09-25T01:02:18;11.20;99.90
9640;DHT22;51745;50.872;4.732;2022-09-25T01:05:11;11.40;99.90
9640;DHT22;51745;50.872;4.732;2022-09-25T01:08:07;11.20;99.90
9640;DHT22;51745;50.872;4.732;2022-09-25T01:11:00;11.20;99.90
9640;DHT22;51745;50.872;4.732;2022-09-25T01:13:56;13.30;99.90
9640;DHT22;51745;50.872;4.732;2022-09-25T01:16:47;11.80;99.90
9640;DHT22;51745;50.872;4.732;2022-09-25T01:19:49;10.70;99.90
9640;DHT22;51745;50.872;4.732;2022-09-25T01:22:51;11.20;99.90
9640;DHT22;51745;50.872;4.732;2022-09-25T01:25:54;11.20;99.90
9640;DHT22;51745;50.872;4.732;2022-09-25T01:28:55;11.00;99.90
9640;DHT22;51745;50.872;4.732;2022-09-25T01:31:50;8.90;99.90
9640;DHT22;51745;50.872;4.732;2022-09-25T01:34:44;11.60;99.90
9640;DHT22;51745;50.872;4.732;2022-09-25T01:37:37;11.10;99.90
9640;DHT22;51745;50.872;4.732;2022-09-25T01:40:28;11.50;99.90
9640;DHT22;51745;50.872;4.732;2022-09-25T01:43:21;10.30;99.90
9640;DHT22;51745;50.872;4.732;2022-09-25T01:46:15;11.00;99.90
9640;DHT22;51745;50.872;4.732;2022-09-25T01:49:10;11.00;99.90
9640;DHT22;51745;50.872;4.732;2022-09-25T01:52:02;12.10;99.90
9640;DHT22;51745;50.872;4.732;2022-09-25T01:54:54;10.90;99.90
9640;DHT22;51745;50.872;4.732;2022-09-25T01:57:47;11.70;99.90
9640;DHT22;51745;50.872;4.732;2022-09-25T02:00:38;10.90;99.90
9640;DHT22;51745;50.872;4.732;2022-09-25T02:03:29;10.90;99.90
9640;DHT22;51745;50.872;4.732;2022-09-25T02:06:19;10.70;99.90
9640;DHT22;51745;50.872;4.732;2022-09-25T02:09:11;10.90;99.90
9640;DHT22;51745;50.872;4.732;2022-09-25T02:12:04;10.80;99.90
9640;DHT22;51745;50.872;4.732;2022-09-25T02:14:54;10.70;99.90
9640;DHT22;51745;50.872;4.732;2022-09-25T02:17:48;9.90;99.90
9640;DHT22;51745;50.872;4.732;2022-09-25T02:21:00;10.60;99.90
9640;DHT22;51745;50.872;4.732;2022-09-25T02:23:52;12.60;99.90
9640;DHT22;51745;50.872;4.732;2022-09-25T02:26:46;10.50;99.90
9640;DHT22;51745;50.872;4.732;2022-09-25T02:29:36;10.50;99.90
9640;DHT22;51745;50.872;4.732;2022-09-25T02:32:29;11.30;99.90
9640;DHT22;51745;50.872;4.732;2022-09-25T02:35:19;9.90;99.90
9640;DHT22;51745;50.872;4.732;2022-09-25T02:38:09;10.40;99.90
9640;DHT22;51745;50.872;4.732;2022-09-25T02:41:01;10.30;99.90
9640;DHT22;51745;50.872;4.732;2022-09-25T02:43:54;10.30;99.90
9640;DHT22;51745;50.872;4.732;2022-09-25T02:46:48;9.70;99.90
9640;DHT22;51745;50.872;4.732;2022-09-25T02:49:43;10.20;99.90
9640;DHT22;51745;50.872;4.732;2022-09-25T02:52:35;11.50;99.90
9640;DHT22;51745;50.872;4.732;2022-09-25T02:55:31;11.20;99.90
9640;DHT22;51745;50.872;4.732;2022-09-25T02:58:22;10.00;99.90
9640;DHT22;51745;50.872;4.732;2022-09-25T03:01:13;10.50;99.90
9640;DHT22;51745;50.872;4.732;2022-09-25T03:04:02;10.20;99.90
9640;DHT22;51745;50.872;4.732;2022-09-25T03:06:51;10.00;99.90
9640;DHT22;51745;50.872;4.732;2022-09-25T03:09:44;9.00;99.90
9640;DHT22;51745;50.872;4.732;2022-09-25T03:12:37;10.00;99.90
9640;DHT22;51745;50.872;4.732;2022-09-25T03:15:26;8.20;99.90
9640;DHT22;51745;50.872;4.732;2022-09-25T03:18:14;9.90;99.90
9640;DHT22;51745;50.872;4.732;2022-09-25T03:21:03;9.80;99.90
9640;DHT22;51745;50.872;4.732;2022-09-25T03:23:54;9.80;99.90
9640;DHT22;51745;50.872;4.732;2022-09-25T03:26:44;9.80;99.90
9640;DHT22;51745;50.872;4.732;2022-09-25T03:29:38;10.00;99.90
9640;DHT22;51745;50.872;4.732;2022-09-25T03:32:28;12.20;99.90
9640;DHT22;51745;50.872;4.732;2022-09-25T03:35:16;11.70;99.90
9640;DHT22;51745;50.872;4.732;2022-09-25T03:38:05;9.80;99.90
9640;DHT22;51745;50.872;4.732;2022-09-25T03:40:56;11.30;99.90
9640;DHT22;51745;50.872;4.732;2022-09-25T03:43:47;9.30;99.90
9640;DHT22;51745;50.872;4.732;2022-09-25T03:46:41;10.00;99.90
9640;DHT22;51745;50.872;4.732;2022-09-25T03:49:33;9.50;99.90
9640;DHT22;51745;50.872;4.732;2022-09-25T03:52:29;9.70;99.90
9640;DHT22;51745;50.872;4.732;2022-09-25T03:55:18;9.50;99.90
9640;DHT22;51745;50.872;4.732;2022-09-25T03:58:11;9.50;99.90
9640;DHT22;51745;50.872;4.732;2022-09-25T04:01:01;9.40;99.90
9640;DHT22;51745;50.872;4.732;2022-09-25T04:03:52;9.30;99.90
9640;DHT22;51745;50.872;4.732;2022-09-25T04:06:44;9.30;99.90
9640;DHT22;51745;50.872;4.732;2022-09-25T04:09:38;11.50;99.90
9640;DHT22;51745;50.872;4.732;2022-09-25T04:12:40;9.90;99.90
9640;DHT22;51745;50.872;4.732;2022-09-25T04:15:34;9.30;99.90
9640;DHT22;51745;50.872;4.732;2022-09-25T04:18:25;10.10;99.90
9640;DHT22;51745;50.872;4.732;2022-09-25T04:21:20;9.40;99.90
9640;DHT22;51745;50.872;4.732;2022-09-25T04:24:12;9.30;99.90
9640;DHT22;51745;50.872;4.732;2022-09-25T04:27:20;9.20;99.90
9640;DHT22;51745;50.872;4.732;2022-09-25T04:30:11;9.30;99.90
9640;DHT22;51745;50.872;4.732;2022-09-25T04:32:59;9.20;99.90
9640;DHT22;51745;50.872;4.732;2022-09-25T04:36:19;9.20;99.90
9640;DHT22;51745;50.872;4.732;2022-09-25T04:39:12;6.90;99.90
9640;DHT22;51745;50.872;4.732;2022-09-25T04:42:06;9.20;99.90
9640;DHT22;51745;50.872;4.732;2022-09-25T04:44:56;9.10;99.90
9640;DHT22;51745;50.872;4.732;2022-09-25T04:47:52;9.30;99.90
9640;DHT22;51745;50.872;4.732;2022-09-25T04:50:50;10.70;99.90
9640;DHT22;51745;50.872;4.732;2022-09-25T04:53:43;8.90;99.90
9640;DHT22;51745;50.872;4.732;2022-09-25T04:56:35;9.40;99.90
9640;DHT22;51745;50.872;4.732;2022-09-25T04:59:32;11.00;99.90
9640;DHT22;51745;50.872;4.732;2022-09-25T05:02:27;9.00;99.90
9640;DHT22;51745;50.872;4.732;2022-09-25T05:05:18;9.10;99.90
9640;DHT22;51745;50.872;4.732;2022-09-25T05:08:13;11.00;99.90
9640;DHT22;51745;50.872;4.732;2022-09-25T05:11:06;8.70;99.90
9640;DHT22;51745;50.872;4.732;2022-09-25T05:13:57;11.30;99.90
9640;DHT22;51745;50.872;4.732;2022-09-25T05:16:47;9.00;99.90
9640;DHT22;51745;50.872;4.732;2022-09-25T05:19:38;8.90;99.90
9640;DHT22;51745;50.872;4.732;2022-09-25T05:22:29;10.40;99.90
9640;DHT22;51745;50.872;4.732;2022-09-25T05:25:21;10.70;99.90
9640;DHT22;51745;50.872;4.732;2022-09-25T05:28:13;9.50;99.90
9640;DHT22;51745;50.872;4.732;2022-09-25T05:31:03;8.60;99.90
9640;DHT22;51745;50.872;4.732;2022-09-25T05:33:51;9.00;99.90
9640;DHT22;51745;50.872;4.732;2022-09-25T05:36:39;8.90;99.90
9640;DHT22;51745;50.872;4.732;2022-09-25T05:39:27;8.80;99.90
9640;DHT22;51745;50.872;4.732;2022-09-25T05:42:15;8.90;99.90
9640;DHT22;51745;50.872;4.732;2022-09-25T05:45:07;10.60;99.90
9640;DHT22;51745;50.872;4.732;2022-09-25T05:48:01;9.90;99.90
9640;DHT22;51745;50.872;4.732;2022-09-25T05:50:50;10.40;99.90
9640;DHT22;51745;50.872;4.732;2022-09-25T05:53:38;8.80;99.90
9640;DHT22;51745;50.872;4.732;2022-09-25T05:56:30;8.70;99.90
9640;DHT22;51745;50.872;4.732;2022-09-25T05:59:18;9.00;99.90
9640;DHT22;51745;50.872;4.732;2022-09-25T06:02:09;8.80;99.90
9640;DHT22;51745;50.872;4.732;2022-09-25T06:05:00;9.70;99.90
9640;DHT22;51745;50.872;4.732;2022-09-25T06:07:53;9.90;99.90
9640;DHT22;51745;50.872;4.732;2022-09-25T06:10:41;11.00;99.90
9640;DHT22;51745;50.872;4.732;2022-09-25T06:13:35;8.80;99.90
9640;DHT22;51745;50.872;4.732;2022-09-25T06:16:27;8.90;99.90
9640;DHT22;51745;50.872;4.732;2022-09-25T06:19:21;8.60;99.90
9640;DHT22;51745;50.872;4.732;2022-09-25T06:22:17;8.70;99.90
9640;DHT22;51745;50.872;4.732;2022-09-25T06:25:08;7.80;99.90
9640;DHT22;51745;50.872;4.732;2022-09-25T06:28:00;8.90;99.90
9640;DHT22;51745;50.872;4.732;2022-09-25T06:30:58;8.70;99.90
9640;DHT22;51745;50.872;4.732;2022-09-25T06:33:49;9.50;99.90
9640;DHT22;51745;50.872;4.732;2022-09-25T06:37:00;11.20;99.90
9640;DHT22;51745;50.872;4.732;2022-09-25T06:39:56;9.50;99.90
9640;DHT22;51745;50.872;4.732;2022-09-25T06:42:53;8.90;99.90
9640;DHT22;51745;50.872;4.732;2022-09-25T06:45:57;8.60;99.90
9640;DHT22;51745;50.872;4.732;2022-09-25T06:48:57;7.70;99.90
9640;DHT22;51745;50.872;4.732;2022-09-25T06:51:48;9.10;99.90
9640;DHT22;51745;50.872;4.732;2022-09-25T06:54:43;8.90;99.90
9640;DHT22;51745;50.872;4.732;2022-09-25T06:57:35;8.90;99.90
9640;DHT22;51745;50.872;4.732;2022-09-25T07:00:29;11.40;99.90
9640;DHT22;51745;50.872;4.732;2022-09-25T07:03:32;9.00;99.90
9640;DHT22;51745;50.872;4.732;2022-09-25T07:07:40;9.00;99.90
9640;DHT22;51745;50.872;4.732;2022-09-25T07:10:40;9.20;99.90
9640;DHT22;51745;50.872;4.732;2022-09-25T07:13:45;10.40;99.90
9640;DHT22;51745;50.872;4.732;2022-09-25T07:16:46;9.30;99.90
9640;DHT22;51745;50.872;4.732;2022-09-25T07:19:40;10.40;99.90
9640;DHT22;51745;50.872;4.732;2022-09-25T07:22:35;9.40;99.90
9640;DHT22;51745;50.872;4.732;2022-09-25T07:25:37;9.30;99.90
9640;DHT22;51745;50.872;4.732;2022-09-25T07:29:01;10.80;99.90
9640;DHT22;51745;50.872;4.732;2022-09-25T07:31:53;9.80;99.90
9640;DHT22;51745;50.872;4.732;2022-09-25T07:34:57;8.60;99.90
9640;DHT22;51745;50.872;4.732;2022-09-25T07:38:06;9.60;99.90
9640;DHT22;51745;50.872;4.732;2022-09-25T07:41:02;9.60;99.90
9640;DHT22;51745;50.872;4.732;2022-09-25T07:47:27;10.60;99.90
9640;DHT22;51745;50.872;4.732;2022-09-25T07:50:26;9.80;99.90
9640;DHT22;51745;50.872;4.732;2022-09-25T07:53:39;9.80;99.90
9640;DHT22;51745;50.872;4.732;2022-09-25T07:56:52;10.00;99.90
9640;DHT22;51745;50.872;4.732;2022-09-25T08:04:06;9.70;99.90
9640;DHT22;51745;50.872;4.732;2022-09-25T08:11:59;10.80;99.90
9640;DHT22;51745;50.872;4.732;2022-09-25T08:15:01;10.80;99.90
9640;DHT22;51745;50.872;4.732;2022-09-25T08:17:58;10.90;99.90
9640;DHT22;51745;50.872;4.732;2022-09-25T08:20:53;11.10;99.90
9640;DHT22;51745;50.872;4.732;2022-09-25T08:23:47;10.80;99.90
9640;DHT22;51745;50.872;4.732;2022-09-25T08:26:46;11.00;99.90
9640;DHT22;51745;50.872;4.732;2022-09-25T08:30:07;11.00;99.90
9640;DHT22;51745;50.872;4.732;2022-09-25T08:33:31;11.20;99.90
9640;DHT22;51745;50.872;4.732;2022-09-25T08:36:33;11.40;99.90
9640;DHT22;51745;50.872;4.732;2022-09-25T08:39:25;11.10;99.90
9640;DHT22;51745;50.872;4.732;2022-09-25T08:42:19;11.30;99.90
9640;DHT22;51745;50.872;4.732;2022-09-25T08:45:18;11.50;99.90
9640;DHT22;51745;50.872;4.732;2022-09-25T08:48:40;11.50;99.90
9640;DHT22;51745;50.872;4.732;2022-09-25T08:52:05;11.60;99.90
9640;DHT22;51745;50.872;4.732;2022-09-25T08:55:03;11.80;99.90
9640;DHT22;51745;50.872;4.732;2022-09-25T08:58:04;11.80;99.90
9640;DHT22;51745;50.872;4.732;2022-09-25T09:01:21;12.30;99.90
9640;DHT22;51745;50.872;4.732;2022-09-25T09:04:16;12.30;99.90
9640;DHT22;51745;50.872;4.732;2022-09-25T09:07:09;12.10;99.90
9640;DHT22;51745;50.872;4.732;2022-09-25T09:10:26;12.00;99.90
9640;DHT22;51745;50.872;4.732;2022-09-25T09:13:16;12.10;99.90
9640;DHT22;51745;50.872;4.732;2022-09-25T09:16:16;12.20;99.90
9640;DHT22;51745;50.872;4.732;2022-09-25T09:19:08;12.50;99.90
9640;DHT22;51745;50.872;4.732;2022-09-25T09:21:57;12.30;99.90
9640;DHT22;51745;50.872;4.732;2022-09-25T09:24:52;12.40;99.90
9640;DHT22;51745;50.872;4.732;2022-09-25T09:27:47;11.60;99.90
9640;DHT22;51745;50.872;4.732;2022-09-25T09:30:40;12.60;99.90
9640;DHT22;51745;50.872;4.732;2022-09-25T09:33:36;12.30;99.90
9640;DHT22;51745;50.872;4.732;2022-09-25T09:36:33;14.60;99.90
9640;DHT22;51745;50.872;4.732;2022-09-25T09:39:26;13.00;99.90
9640;DHT22;51745;50.872;4.732;2022-09-25T09:42:31;13.10;99.90
9640;DHT22;51745;50.872;4.732;2022-09-25T09:45:24;13.30;99.90
9640;DHT22;51745;50.872;4.732;2022-09-25T09:48:15;13.50;99.90
9640;DHT22;51745;50.872;4.732;2022-09-25T09:51:08;13.30;99.90
9640;DHT22;51745;50.872;4.732;2022-09-25T09:54:01;13.40;99.90
9640;DHT22;51745;50.872;4.732;2022-09-25T09:56:54;13.30;99.90
9640;DHT22;51745;50.872;4.732;2022-09-25T09:59:44;13.30;99.90
9640;DHT22;51745;50.872;4.732;2022-09-25T10:02:36;13.70;99.90
9640;DHT22;51745;50.872;4.732;2022-09-25T10:05:29;13.50;99.90
9640;DHT22;51745;50.872;4.732;2022-09-25T10:08:20;13.00;99.90
9640;DHT22;51745;50.872;4.732;2022-09-25T10:11:12;13.10;99.90
9640;DHT22;51745;50.872;4.732;2022-09-25T10:14:04;13.90;99.90
9640;DHT22;51745;50.872;4.732;2022-09-25T10:17:01;14.00;99.90
9640;DHT22;51745;50.872;4.732;2022-09-25T10:19:51;14.30;99.90
9640;DHT22;51745;50.872;4.732;2022-09-25T10:22:41;14.20;99.90
9640;DHT22;51745;50.872;4.732;2022-09-25T10:25:34;16.20;99.90
9640;DHT22;51745;50.872;4.732;2022-09-25T10:28:27;14.50;99.90
9640;DHT22;51745;50.872;4.732;2022-09-25T10:31:16;14.50;99.90
9640;DHT22;51745;50.872;4.732;2022-09-25T10:34:15;14.70;99.90
9640;DHT22;51745;50.872;4.732;2022-09-25T10:37:15;14.60;99.90
9640;DHT22;51745;50.872;4.732;2022-09-25T10:40:22;15.40;99.90
9640;DHT22;51745;50.872;4.732;2022-09-25T10:43:15;14.80;99.90
9640;DHT22;51745;50.872;4.732;2022-09-25T10:46:04;14.90;99.90
9640;DHT22;51745;50.872;4.732;2022-09-25T10:48:52;14.90;99.90
9640;DHT22;51745;50.872;4.732;2022-09-25T10:52:13;14.80;99.90
9640;DHT22;51745;50.872;4.732;2022-09-25T10:55:10;14.70;99.90
9640;DHT22;51745;50.872;4.732;2022-09-25T10:58:03;14.70;99.90
9640;DHT22;51745;50.872;4.732;2022-09-25T11:00:56;15.00;99.90
9640;DHT22;51745;50.872;4.732;2022-09-25T11:03:48;15.20;99.90
9640;DHT22;51745;50.872;4.732;2022-09-25T11:06:41;15.90;99.90
9640;DHT22;51745;50.872;4.732;2022-09-25T11:09:35;15.30;99.90
9640;DHT22;51745;50.872;4.732;2022-09-25T11:12:24;15.30;99.90
9640;DHT22;51745;50.872;4.732;2022-09-25T11:15:28;15.20;99.90
9640;DHT22;51745;50.872;4.732;2022-09-25T11:18:30;17.30;99.90
9640;DHT22;51745;50.872;4.732;2022-09-25T11:21:25;16.10;99.90
9640;DHT22;51745;50.872;4.732;2022-09-25T11:24:16;14.90;99.90
9640;DHT22;51745;50.872;4.732;2022-09-25T11:27:08;14.80;99.90
9640;DHT22;51745;50.872;4.732;2022-09-25T11:30:03;15.50;99.90
9640;DHT22;51745;50.872;4.732;2022-09-25T11:32:57;15.20;99.90
9640;DHT22;51745;50.872;4.732;2022-09-25T11:35:49;15.30;99.90
9640;DHT22;51745;50.872;4.732;2022-09-25T11:38:46;15.40;99.90
9640;DHT22;51745;50.872;4.732;2022-09-25T11:42:04;15.40;99.90
9640;DHT22;51745;50.872;4.732;2022-09-25T11:44:57;15.40;99.90
9640;DHT22;51745;50.872;4.732;2022-09-25T11:47:48;15.40;99.90
9640;DHT22;51745;50.872;4.732;2022-09-25T11:50:40;15.50;99.90
9640;DHT22;51745;50.872;4.732;2022-09-25T11:53:38;16.90;99.90
9640;DHT22;51745;50.872;4.732;2022-09-25T11:56:32;15.40;99.90
9640;DHT22;51745;50.872;4.732;2022-09-25T11:59:25;16.50;99.90
9640;DHT22;51745;50.872;4.732;2022-09-25T12:02:23;15.30;99.90
9640;DHT22;51745;50.872;4.732;2022-09-25T12:05:36;15.20;99.90
9640;DHT22;51745;50.872;4.732;2022-09-25T12:08:35;15.20;99.90
9640;DHT22;51745;50.872;4.732;2022-09-25T12:11:25;14.00;99.90
9640;DHT22;51745;50.872;4.732;2022-09-25T12:14:21;15.40;99.90
9640;DHT22;51745;50.872;4.732;2022-09-25T12:17:16;15.30;99.90
9640;DHT22;51745;50.872;4.732;2022-09-25T12:20:10;15.50;99.90
9640;DHT22;51745;50.872;4.732;2022-09-25T12:23:12;15.60;99.90
9640;DHT22;51745;50.872;4.732;2022-09-25T12:26:08;15.80;99.90
9640;DHT22;51745;50.872;4.732;2022-09-25T12:29:07;15.90;99.90
9640;DHT22;51745;50.872;4.732;2022-09-25T12:32:00;15.90;99.90
9640;DHT22;51745;50.872;4.732;2022-09-25T12:34:54;15.80;99.90
9640;DHT22;51745;50.872;4.732;2022-09-25T12:37:47;15.80;99.90
9640;DHT22;51745;50.872;4.732;2022-09-25T12:40:40;16.60;99.90
9640;DHT22;51745;50.872;4.732;2022-09-25T12:43:30;15.90;99.90
9640;DHT22;51745;50.872;4.732;2022-09-25T12:46:23;15.90;99.90
9640;DHT22;51745;50.872;4.732;2022-09-25T12:49:13;16.00;99.90
9640;DHT22;51745;50.872;4.732;2022-09-25T12:52:08;16.00;99.90
9640;DHT22;51745;50.872;4.732;2022-09-25T12:54:59;16.00;99.90
9640;DHT22;51745;50.872;4.732;2022-09-25T12:57:50;16.40;99.90
9640;DHT22;51745;50.872;4.732;2022-09-25T13:00:41;16.10;99.90
9640;DHT22;51745;50.872;4.732;2022-09-25T13:03:33;16.10;99.90
9640;DHT22;51745;50.872;4.732;2022-09-25T13:06:33;16.10;99.90
9640;DHT22;51745;50.872;4.732;2022-09-25T13:09:27;16.30;99.90
9640;DHT22;51745;50.872;4.732;2022-09-25T13:12:23;16.30;99.90
9640;DHT22;51745;50.872;4.732;2022-09-25T13:15:21;16.30;99.90
9640;DHT22;51745;50.872;4.732;2022-09-25T13:18:14;16.40;99.90
9640;DHT22;51745;50.872;4.732;2022-09-25T13:24:08;16.20;99.90
9640;DHT22;51745;50.872;4.732;2022-09-25T13:26:58;18.10;99.90
9640;DHT22;51745;50.872;4.732;2022-09-25T13:29:53;16.30;99.90
9640;DHT22;51745;50.872;4.732;2022-09-25T13:32:44;16.60;99.90
9640;DHT22;51745;50.872;4.732;2022-09-25T13:35:37;16.90;99.90
9640;DHT22;51745;50.872;4.732;2022-09-25T13:38:25;16.90;99.90
9640;DHT22;51745;50.872;4.732;2022-09-25T13:41:28;16.90;99.90
9640;DHT22;51745;50.872;4.732;2022-09-25T13:50:36;17.50;99.90
9640;DHT22;51745;50.872;4.732;2022-09-25T13:53:26;18.90;99.90
9640;DHT22;51745;50.872;4.732;2022-09-25T13:56:22;17.80;99.90
9640;DHT22;51745;50.872;4.732;2022-09-25T13:59:21;19.20;99.90
9640;DHT22;51745;50.872;4.732;2022-09-25T14:02:32;19.70;99.90
9640;DHT22;51745;50.872;4.732;2022-09-25T14:05:27;17.50;99.90
9640;DHT22;51745;50.872;4.732;2022-09-25T14:08:26;16.20;99.90
9640;DHT22;51745;50.872;4.732;2022-09-25T14:11:18;17.50;99.90
9640;DHT22;51745;50.872;4.732;2022-09-25T14:14:12;17.70;99.90
9640;DHT22;51745;50.872;4.732;2022-09-25T14:17:03;18.00;99.90
9640;DHT22;51745;50.872;4.732;2022-09-25T14:19:51;17.80;99.90
9640;DHT22;51745;50.872;4.732;2022-09-25T14:22:44;17.60;99.90
9640;DHT22;51745;50.872;4.732;2022-09-25T14:25:39;17.90;99.90
9640;DHT22;51745;50.872;4.732;2022-09-25T14:28:34;18.00;99.90
9640;DHT22;51745;50.872;4.732;2022-09-25T14:31:36;18.00;99.90
9640;DHT22;51745;50.872;4.732;2022-09-25T14:34:35;18.20;99.90
9640;DHT22;51745;50.872;4.732;2022-09-25T14:37:38;17.70;99.90
9640;DHT22;51745;50.872;4.732;2022-09-25T14:40:33;17.60;99.90
9640;DHT22;51745;50.872;4.732;2022-09-25T14:43:30;17.50;99.90
9640;DHT22;51745;50.872;4.732;2022-09-25T14:46:22;17.30;99.90
9640;DHT22;51745;50.872;4.732;2022-09-25T14:49:13;17.30;99.90
9640;DHT22;51745;50.872;4.732;2022-09-25T14:52:05;17.50;99.90
9640;DHT22;51745;50.872;4.732;2022-09-25T14:54:59;17.30;99.90
9640;DHT22;51745;50.872;4.732;2022-09-25T14:57:47;17.20;99.90
9640;DHT22;51745;50.872;4.732;2022-09-25T15:00:43;17.20;99.90
9640;DHT22;51745;50.872;4.732;2022-09-25T15:03:32;15.60;99.90
9640;DHT22;51745;50.872;4.732;2022-09-25T15:06:25;16.60;99.90
9640;DHT22;51745;50.872;4.732;2022-09-25T15:09:26;16.30;99.90
9640;DHT22;51745;50.872;4.732;2022-09-25T15:12:17;16.10;99.90
9640;DHT22;51745;50.872;4.732;2022-09-25T15:15:09;15.90;99.90
9640;DHT22;51745;50.872;4.732;2022-09-25T15:17:59;15.90;99.90
9640;DHT22;51745;50.872;4.732;2022-09-25T15:20:47;15.80;99.90
9640;DHT22;51745;50.872;4.732;2022-09-25T15:23:37;15.70;99.90
9640;DHT22;51745;50.872;4.732;2022-09-25T15:26:25;15.70;99.90
9640;DHT22;51745;50.872;4.732;2022-09-25T15:29:16;15.70;99.90
9640;DHT22;51745;50.872;4.732;2022-09-25T15:32:05;15.60;99.90
9640;DHT22;51745;50.872;4.732;2022-09-25T15:35:05;15.70;99.90
9640;DHT22;51745;50.872;4.732;2022-09-25T15:38:01;15.60;99.90
9640;DHT22;51745;50.872;4.732;2022-09-25T15:40:53;15.70;99.90
9640;DHT22;51745;50.872;4.732;2022-09-25T15:43:41;15.70;99.90
9640;DHT22;51745;50.872;4.732;2022-09-25T15:46:35;16.20;99.90
9640;DHT22;51745;50.872;4.732;2022-09-25T15:49:28;15.60;99.90
9640;DHT22;51745;50.872;4.732;2022-09-25T15:52:19;14.60;99.90
9640;DHT22;51745;50.872;4.732;2022-09-25T15:55:10;15.60;99.90
9640;DHT22;51745;50.872;4.732;2022-09-25T15:58:03;15.80;99.90
9640;DHT22;51745;50.872;4.732;2022-09-25T16:00:53;15.80;99.90
9640;DHT22;51745;50.872;4.732;2022-09-25T16:04:00;17.60;99.90
9640;DHT22;51745;50.872;4.732;2022-09-25T16:10:29;15.70;99.90
9640;DHT22;51745;50.872;4.732;2022-09-25T16:13:21;15.70;99.90
9640;DHT22;51745;50.872;4.732;2022-09-25T16:16:22;14.00;99.90
9640;DHT22;51745;50.872;4.732;2022-09-25T16:19:20;17.30;99.90
9640;DHT22;51745;50.872;4.732;2022-09-25T16:22:16;15.70;99.90
9640;DHT22;51745;50.872;4.732;2022-09-25T16:25:15;15.60;99.90
9640;DHT22;51745;50.872;4.732;2022-09-25T16:28:16;15.70;99.90
9640;DHT22;51745;50.872;4.732;2022-09-25T16:31:06;15.60;99.90
9640;DHT22;51745;50.872;4.732;2022-09-25T16:33:56;15.50;99.90
9640;DHT22;51745;50.872;4.732;2022-09-25T16:36:46;15.60;99.90
9640;DHT22;51745;50.872;4.732;2022-09-25T16:39:37;15.60;99.90
9640;DHT22;51745;50.872;4.732;2022-09-25T16:42:28;15.50;99.90
9640;DHT22;51745;50.872;4.732;2022-09-25T16:45:18;15.50;99.90
9640;DHT22;51745;50.872;4.732;2022-09-25T16:48:25;17.40;99.90
9640;DHT22;51745;50.872;4.732;2022-09-25T16:51:16;15.30;99.90
9640;DHT22;51745;50.872;4.732;2022-09-25T16:54:07;15.30;99.90
9640;DHT22;51745;50.872;4.732;2022-09-25T16:56:56;15.20;99.90
9640;DHT22;51745;50.872;4.732;2022-09-25T16:59:44;15.10;99.90
9640;DHT22;51745;50.872;4.732;2022-09-25T17:02:36;15.00;99.90
9640;DHT22;51745;50.872;4.732;2022-09-25T17:05:31;15.00;99.90
9640;DHT22;51745;50.872;4.732;2022-09-25T17:08:22;15.00;99.90
9640;DHT22;51745;50.872;4.732;2022-09-25T17:11:13;15.10;99.90
9640;DHT22;51745;50.872;4.732;2022-09-25T17:14:01;14.90;99.90
9640;DHT22;51745;50.872;4.732;2022-09-25T17:16:53;15.10;99.90
9640;DHT22;51745;50.872;4.732;2022-09-25T17:19:43;15.00;99.90
9640;DHT22;51745;50.872;4.732;2022-09-25T17:22:31;14.80;99.90
9640;DHT22;51745;50.872;4.732;2022-09-25T17:25:23;14.70;99.90
9640;DHT22;51745;50.872;4.732;2022-09-25T17:28:15;14.60;99.90
9640;DHT22;51745;50.872;4.732;2022-09-25T17:31:03;14.60;99.90
9640;DHT22;51745;50.872;4.732;2022-09-25T17:33:50;14.50;99.90
9640;DHT22;51745;50.872;4.732;2022-09-25T17:36:41;14.60;99.90
9640;DHT22;51745;50.872;4.732;2022-09-25T17:39:28;14.70;99.90
9640;DHT22;51745;50.872;4.732;2022-09-25T17:42:16;14.30;99.90
9640;DHT22;51745;50.872;4.732;2022-09-25T17:45:08;14.30;99.90
9640;DHT22;51745;50.872;4.732;2022-09-25T17:47:57;14.20;99.90
9640;DHT22;51745;50.872;4.732;2022-09-25T17:50:45;14.00;99.90
9640;DHT22;51745;50.872;4.732;2022-09-25T17:53:34;14.10;99.90
9640;DHT22;51745;50.872;4.732;2022-09-25T17:56:23;14.00;99.90
9640;DHT22;51745;50.872;4.732;2022-09-25T17:59:13;13.80;99.90
9640;DHT22;51745;50.872;4.732;2022-09-25T18:02:01;13.80;99.90
9640;DHT22;51745;50.872;4.732;2022-09-25T18:04:50;13.90;99.90
9640;DHT22;51745;50.872;4.732;2022-09-25T18:07:37;13.80;99.90
9640;DHT22;51745;50.872;4.732;2022-09-25T18:10:27;13.70;99.90
9640;DHT22;51745;50.872;4.732;2022-09-25T18:13:15;13.70;99.90
9640;DHT22;51745;50.872;4.732;2022-09-25T18:16:05;15.60;99.90
9640;DHT22;51745;50.872;4.732;2022-09-25T18:18:53;15.00;99.90
9640;DHT22;51745;50.872;4.732;2022-09-25T18:21:58;13.70;99.90
9640;DHT22;51745;50.872;4.732;2022-09-25T18:25:06;13.50;99.90
9640;DHT22;51745;50.872;4.732;2022-09-25T18:27:57;13.50;99.90
9640;DHT22;51745;50.872;4.732;2022-09-25T18:30:45;13.50;99.90
9640;DHT22;51745;50.872;4.732;2022-09-25T18:33:33;13.30;99.90
9640;DHT22;51745;50.872;4.732;2022-09-25T18:36:22;13.20;99.90
9640;DHT22;51745;50.872;4.732;2022-09-25T18:39:10;13.20;99.90
9640;DHT22;51745;50.872;4.732;2022-09-25T18:42:05;13.10;99.90
9640;DHT22;51745;50.872;4.732;2022-09-25T18:44:54;13.00;99.90
9640;DHT22;51745;50.872;4.732;2022-09-25T18:47:42;13.00;99.90
9640;DHT22;51745;50.872;4.732;2022-09-25T18:50:31;13.00;99.90
9640;DHT22;51745;50.872;4.732;2022-09-25T18:53:20;13.00;99.90
9640;DHT22;51745;50.872;4.732;2022-09-25T18:56:07;13.00;99.90
9640;DHT22;51745;50.872;4.732;2022-09-25T18:58:55;12.90;99.90
9640;DHT22;51745;50.872;4.732;2022-09-25T19:01:45;12.90;99.90
9640;DHT22;51745;50.872;4.732;2022-09-25T19:04:32;12.80;99.90
9640;DHT22;51745;50.872;4.732;2022-09-25T19:07:26;12.80;99.90
9640;DHT22;51745;50.872;4.732;2022-09-25T19:10:14;12.80;99.90